^^
Saratoga-Weather Station Historical Data
Daily Summary for March 6, 2021 Units:  Metric    English   Both
Daily Weekly Monthly Yearly Custom
  High: Low: Average:
Temperature: 28.4 °C 12.8 °C 20.1 °C
Dew Point: 16.5 °C 11.9 °C 14.2 °C
Humidity: 96% 41% 72%
Wind Speed: 9.7km/h km/h 1km/h
Wind Gust: 11.3km/h - -
Wind- - SSE
Pressure: 1022.4 hPa 1020.0 hPa -
Precipitation: 0.0 mm    
Historical Graphs
 
 
Tabular Data for March 6, 2021
Time Temperature Dew Point Pressure Wind Wind Speed Wind Gust Humidity Rainfall Rate (Hourly) solar
00:00 16.7 °C 13.8 °C 1020.0 hPa Calm   1.6 km/h 83% 0.0 mm 0 W/m2
00:05 16.7 °C 14 °C 1020.0 hPa Calm     84% 0.0 mm 0 W/m2
00:10 16.6 °C 13.9 °C 1020.0 hPa Calm     84% 0.0 mm 0 W/m2
00:15 16.5 °C 13.8 °C 1020.0 hPa Calm     84% 0.0 mm 0 W/m2
00:20 16.4 °C 13.9 °C 1020.0 hPa Calm     85% 0.0 mm 0 W/m2
00:25 16.4 °C 13.9 °C 1020.0 hPa Calm     85% 0.0 mm 0 W/m2
00:30 16.3 °C 13.8 °C 1020.0 hPa Calm     85% 0.0 mm 0 W/m2
00:35 16.3 °C 13.8 °C 1020.0 hPa Calm     85% 0.0 mm 0 W/m2
00:40 16.2 °C 13.9 °C 1020.0 hPa Calm     86% 0.0 mm 0 W/m2
00:45 16.1 °C 13.8 °C 1020.0 hPa Calm     86% 0.0 mm 0 W/m2
00:50 16.1 °C 13.8 °C 1020.0 hPa Calm     86% 0.0 mm 0 W/m2
00:55 15.9 °C 13.6 °C 1020.3 hPa Calm     86% 0.0 mm 0 W/m2
01:01 15.9 °C 13.7 °C 1020.3 hPa Calm     87% 0.0 mm 0 W/m2
01:06 15.8 °C 13.6 °C 1020.3 hPa Calm     87% 0.0 mm 0 W/m2
01:11 15.8 °C 13.6 °C 1020.0 hPa Calm     87% 0.0 mm 0 W/m2
01:16 15.8 °C 13.6 °C 1020.0 hPa Calm     87% 0.0 mm 0 W/m2
01:21 15.7 °C 13.5 °C 1020.0 hPa Calm     87% 0.0 mm 0 W/m2
01:26 15.7 °C 13.7 °C 1020.0 hPa Calm     88% 0.0 mm 0 W/m2
01:31 15.6 °C 13.6 °C 1020.0 hPa Calm     88% 0.0 mm 0 W/m2
01:36 15.6 °C 13.6 °C 1020.3 hPa Calm     88% 0.0 mm 0 W/m2
01:41 15.4 °C 13.4 °C 1020.3 hPa Calm     88% 0.0 mm 0 W/m2
01:46 15.4 °C 13.4 °C 1020.3 hPa Calm     88% 0.0 mm 0 W/m2
01:51 15.3 °C 13.5 °C 1020.3 hPa Calm     89% 0.0 mm 0 W/m2
01:56 15.3 °C 13.5 °C 1020.3 hPa Calm     89% 0.0 mm 0 W/m2
02:01 15.2 °C 13.4 °C 1020.3 hPa Calm     89% 0.0 mm 0 W/m2
02:06 15.1 °C 13.3 °C 1020.3 hPa Calm     89% 0.0 mm 0 W/m2
02:11 15 °C 13.2 °C 1020.3 hPa Calm     89% 0.0 mm 0 W/m2
02:16 14.9 °C 13.1 °C 1020.3 hPa Calm     89% 0.0 mm 0 W/m2
02:21 14.8 °C 13.2 °C 1020.3 hPa Calm     90% 0.0 mm 0 W/m2
02:26 14.8 °C 13.2 °C 1020.3 hPa Calm     90% 0.0 mm 0 W/m2
02:31 14.7 °C 13.2 °C 1020.3 hPa Calm     91% 0.0 mm 0 W/m2
02:36 14.7 °C 13.1 °C 1020.3 hPa Calm     90% 0.0 mm 0 W/m2
02:41 14.6 °C 13.1 °C 1020.3 hPa Calm     91% 0.0 mm 0 W/m2
02:46 14.5 °C 13 °C 1020.3 hPa Calm     91% 0.0 mm 0 W/m2
02:51 14.4 °C 12.9 °C 1020.3 hPa Calm     91% 0.0 mm 0 W/m2
02:56 14.4 °C 12.9 °C 1020.3 hPa Calm     91% 0.0 mm 0 W/m2
03:01 14.3 °C 13 °C 1020.3 hPa Calm     92% 0.0 mm 0 W/m2
03:06 14.3 °C 13 °C 1020.3 hPa Calm     92% 0.0 mm 0 W/m2
03:11 14.2 °C 12.9 °C 1020.7 hPa Calm     92% 0.0 mm 0 W/m2
03:16 14.2 °C 12.9 °C 1020.7 hPa Calm     92% 0.0 mm 0 W/m2
03:21 14.2 °C 12.9 °C 1020.7 hPa Calm     92% 0.0 mm 0 W/m2
03:26 14.1 °C 12.8 °C 1020.7 hPa Calm     92% 0.0 mm 0 W/m2
03:31 14.1 °C 12.8 °C 1020.7 hPa Calm     92% 0.0 mm 0 W/m2
03:36 14.1 °C 13 °C 1020.7 hPa Calm     93% 0.0 mm 0 W/m2
03:41 14 °C 12.9 °C 1020.7 hPa Calm     93% 0.0 mm 0 W/m2
03:46 14 °C 12.9 °C 1020.7 hPa Calm     93% 0.0 mm 0 W/m2
03:51 14 °C 12.9 °C 1020.7 hPa Calm     93% 0.0 mm 0 W/m2
03:56 14 °C 12.9 °C 1020.7 hPa Calm     93% 0.0 mm 0 W/m2
04:01 14 °C 13 °C 1020.7 hPa Calm     94% 0.0 mm 0 W/m2
04:06 14 °C 12.9 °C 1020.7 hPa Calm     93% 0.0 mm 0 W/m2
04:11 13.9 °C 12.8 °C 1020.7 hPa Calm     93% 0.0 mm 0 W/m2
04:16 13.9 °C 12.9 °C 1020.7 hPa Calm     94% 0.0 mm 0 W/m2
04:21 13.9 °C 12.9 °C 1020.7 hPa Calm     94% 0.0 mm 0 W/m2
04:26 13.9 °C 12.9 °C 1020.7 hPa Calm     94% 0.0 mm 0 W/m2
04:31 13.9 °C 12.9 °C 1020.7 hPa Calm     94% 0.0 mm 0 W/m2
04:36 13.9 °C 12.9 °C 1020.7 hPa Calm     94% 0.0 mm 0 W/m2
04:41 13.8 °C 12.9 °C 1020.7 hPa Calm     94% 0.0 mm 0 W/m2
04:46 13.8 °C 12.9 °C 1020.7 hPa Calm     94% 0.0 mm 0 W/m2
04:51 13.8 °C 12.9 °C 1020.7 hPa Calm     94% 0.0 mm 0 W/m2
04:56 13.8 °C 12.9 °C 1020.7 hPa Calm     94% 0.0 mm 0 W/m2
05:01 13.7 °C 12.8 °C 1020.7 hPa Calm     94% 0.0 mm 0 W/m2
05:06 13.7 °C 12.8 °C 1020.7 hPa Calm     94% 0.0 mm 0 W/m2
05:11 13.7 °C 12.8 °C 1020.7 hPa Calm     94% 0.0 mm 0 W/m2
05:16 13.7 °C 12.8 °C 1020.7 hPa Calm     94% 0.0 mm 0 W/m2
05:21 13.7 °C 12.8 °C 1020.7 hPa Calm     94% 0.0 mm 0 W/m2
05:26 13.6 °C 12.7 °C 1020.3 hPa Calm     94% 0.0 mm 0 W/m2
05:31 13.6 °C 12.7 °C 1020.7 hPa Calm     94% 0.0 mm 0 W/m2
05:36 13.6 °C 12.7 °C 1020.3 hPa Calm     94% 0.0 mm 0 W/m2
05:41 13.5 °C 12.6 °C 1020.3 hPa Calm     94% 0.0 mm 0 W/m2
05:46 13.4 °C 12.5 °C 1020.3 hPa Calm     94% 0.0 mm 0 W/m2
05:51 13.4 °C 12.5 °C 1020.3 hPa Calm     94% 0.0 mm 0 W/m2
05:56 13.4 °C 12.5 °C 1020.3 hPa Calm     94% 0.0 mm 0 W/m2
06:01 13.4 °C 12.5 °C 1020.3 hPa Calm     94% 0.0 mm 0 W/m2
06:06 13.4 °C 12.5 °C 1020.3 hPa Calm     94% 0.0 mm 0 W/m2
06:11 13.3 °C 12.4 °C 1020.3 hPa Calm     94% 0.0 mm 0 W/m2
06:17 13.3 °C 12.4 °C 1020.7 hPa Calm     94% 0.0 mm 0 W/m2
06:22 13.3 °C 12.4 °C 1020.7 hPa Calm     94% 0.0 mm 0 W/m2
06:27 13.2 °C 12.3 °C 1020.7 hPa Calm     94% 0.0 mm 0 W/m2
06:32 13.2 °C 12.3 °C 1020.7 hPa Calm     94% 0.0 mm 0 W/m2
06:37 13.1 °C 12.2 °C 1020.7 hPa Calm     94% 0.0 mm 0 W/m2
06:42 13.1 °C 12.2 °C 1020.7 hPa Calm     94% 0.0 mm 0 W/m2
06:47 13 °C 12.1 °C 1020.7 hPa Calm     94% 0.0 mm 0 W/m2
06:52 12.9 °C 12 °C 1020.7 hPa Calm     94% 0.0 mm 0 W/m2
06:57 12.9 °C 12 °C 1020.7 hPa Calm     94% 0.0 mm 0 W/m2
07:02 12.8 °C 11.9 °C 1020.7 hPa Calm     94% 0.0 mm 5 W/m2
07:07 12.8 °C 12 °C 1020.7 hPa Calm     95% 0.0 mm 5 W/m2
07:12 12.8 °C 12 °C 1021.0 hPa Calm     95% 0.0 mm 9 W/m2
07:17 12.8 °C 12 °C 1021.0 hPa Calm     95% 0.0 mm 11 W/m2
07:22 12.8 °C 12 °C 1021.0 hPa South 1.4 km/h 1.6 km/h 95% 0.0 mm 12 W/m2
07:27 12.9 °C 12.1 °C 1021.0 hPa Calm     95% 0.0 mm 14 W/m2
07:32 12.9 °C 12.1 °C 1021.0 hPa Calm     95% 0.0 mm 16 W/m2
07:37 12.9 °C 12.1 °C 1021.3 hPa Calm     95% 0.0 mm 19 W/m2
07:42 12.9 °C 12.1 °C 1021.3 hPa Calm     95% 0.0 mm 21 W/m2
07:47 13 °C 12.2 °C 1021.3 hPa Calm     95% 0.0 mm 23 W/m2
07:52 13.1 °C 12.3 °C 1021.3 hPa Calm     95% 0.0 mm 25 W/m2
07:57 13.1 °C 12.3 °C 1021.3 hPa Calm     95% 0.0 mm 26 W/m2
08:02 13.2 °C 12.4 °C 1021.3 hPa Calm   1.6 km/h 95% 0.0 mm 28 W/m2
08:07 13.3 °C 12.7 °C 1021.3 hPa Calm     96% 0.0 mm 30 W/m2
08:12 13.4 °C 12.8 °C 1021.3 hPa Calm   1.6 km/h 96% 0.0 mm 33 W/m2
08:17 13.5 °C 12.9 °C 1021.3 hPa Calm     96% 0.0 mm 84 W/m2
08:22 13.7 °C 13.1 °C 1021.3 hPa Calm     96% 0.0 mm 111 W/m2
08:27 13.9 °C 13.3 °C 1021.3 hPa Calm     96% 0.0 mm 123 W/m2
08:32 14.2 °C 13.6 °C 1021.3 hPa Calm     96% 0.0 mm 141 W/m2
08:37 14.4 °C 13.8 °C 1021.3 hPa Calm   1.6 km/h 96% 0.0 mm 153 W/m2
08:42 14.7 °C 14.1 °C 1021.3 hPa Calm     96% 0.0 mm 171 W/m2
08:47 14.9 °C 14.3 °C 1021.3 hPa Calm     96% 0.0 mm 183 W/m2
08:52 15.3 °C 14.7 °C 1021.3 hPa Calm   1.6 km/h 96% 0.0 mm 197 W/m2
08:57 15.6 °C 14.8 °C 1021.7 hPa Calm   3.2 km/h 95% 0.0 mm 216 W/m2
09:02 16 °C 15 °C 1021.7 hPa Calm   1.6 km/h 94% 0.0 mm 47 W/m2
09:07 16.4 °C 15.3 °C 1021.7 hPa East 3.2 km/h 3.2 km/h 93% 0.0 mm 47 W/m2
09:12 16.8 °C 15.1 °C 1021.7 hPa Calm   1.6 km/h 90% 0.0 mm 257 W/m2
09:17 17.2 °C 15 °C 1021.7 hPa Calm   1.6 km/h 87% 0.0 mm 271 W/m2
09:22 17.5 °C 14.9 °C 1021.7 hPa Calm     85% 0.0 mm 287 W/m2
09:27 17.8 °C 14.9 °C 1022.0 hPa Calm     83% 0.0 mm 301 W/m2
09:32 18.2 °C 15.1 °C 1022.0 hPa Calm   3.2 km/h 82% 0.0 mm 318 W/m2
09:37 18.4 °C 14.9 °C 1022.0 hPa Calm     80% 0.0 mm 329 W/m2
09:42 18.7 °C 15.2 °C 1022.0 hPa Calm   1.6 km/h 80% 0.0 mm 346 W/m2
09:47 18.9 °C 15.2 °C 1022.0 hPa Calm     79% 0.0 mm 359 W/m2
09:52 19.2 °C 15.5 °C 1022.0 hPa Calm     79% 0.0 mm 371 W/m2
09:57 19.5 °C 15.6 °C 1022.0 hPa Calm     78% 0.0 mm 385 W/m2
10:02 19.8 °C 15.7 °C 1022.0 hPa Calm   3.2 km/h 77% 0.0 mm 397 W/m2
10:07 20.1 °C 15.7 °C 1022.0 hPa Calm     76% 0.0 mm 410 W/m2
10:12 20.2 °C 15.6 °C 1022.0 hPa Calm   3.2 km/h 75% 0.0 mm 424 W/m2
10:17 20.3 °C 15.5 °C 1022.4 hPa NE 1.4 km/h 1.6 km/h 74% 0.0 mm 436 W/m2
10:22 20.6 °C 16 °C 1022.4 hPa East 1.4 km/h 3.2 km/h 75% 0.0 mm 452 W/m2
10:27 20.8 °C 16 °C 1022.4 hPa Calm   4.8 km/h 74% 0.0 mm 464 W/m2
10:32 21.2 °C 16.4 °C 1022.0 hPa East 1.4 km/h 4.8 km/h 74% 0.0 mm 478 W/m2
10:37 21.3 °C 15.8 °C 1022.0 hPa East 3.2 km/h 3.2 km/h 71% 0.0 mm 487 W/m2
10:42 21.5 °C 16 °C 1022.4 hPa Calm   3.2 km/h 71% 0.0 mm 501 W/m2
10:47 21.6 °C 15.9 °C 1022.0 hPa NE 1.4 km/h 3.2 km/h 70% 0.0 mm 510 W/m2
10:52 21.8 °C 15.9 °C 1022.0 hPa ENE 3.2 km/h 3.2 km/h 69% 0.0 mm 524 W/m2
10:57 21.9 °C 15.7 °C 1022.4 hPa NE 1.4 km/h 3.2 km/h 68% 0.0 mm 533 W/m2
11:02 22.1 °C 15.7 °C 1022.4 hPa Calm   1.6 km/h 67% 0.0 mm 541 W/m2
11:07 22.2 °C 15.5 °C 1022.0 hPa Calm   3.2 km/h 66% 0.0 mm 554 W/m2
11:12 22.4 °C 16 °C 1022.4 hPa SE 4.7 km/h 4.8 km/h 67% 0.0 mm 566 W/m2
11:17 22.6 °C 16.2 °C 1022.4 hPa Calm   1.6 km/h 67% 0.0 mm 573 W/m2
11:22 22.8 °C 15.6 °C 1022.4 hPa NNW 4.7 km/h 6.4 km/h 64% 0.0 mm 585 W/m2
11:27 22.7 °C 15.5 °C 1022.4 hPa NNE 1.4 km/h 3.2 km/h 64% 0.0 mm 594 W/m2
11:32 22.9 °C 16.2 °C 1022.4 hPa East 1.4 km/h 4.8 km/h 66% 0.0 mm 603 W/m2
11:37 23.2 °C 16 °C 1022.4 hPa East 6.4 km/h 9.7 km/h 64% 0.0 mm 608 W/m2
11:42 23.5 °C 15.8 °C 1022.4 hPa Calm   3.2 km/h 62% 0.0 mm 617 W/m2
11:47 23.7 °C 16.2 °C 1022.4 hPa SE 3.2 km/h 9.7 km/h 63% 0.0 mm 626 W/m2
11:52 24.1 °C 16.1 °C 1022.4 hPa East 1.4 km/h 4.8 km/h 61% 0.0 mm 636 W/m2
11:57 24.3 °C 16 °C 1022.4 hPa SE 3.2 km/h 4.8 km/h 60% 0.0 mm 642 W/m2
12:02 24.6 °C 15.8 °C 1022.4 hPa ESE 4.7 km/h 6.4 km/h 58% 0.0 mm 650 W/m2
12:07 24.8 °C 15.4 °C 1022.4 hPa SSE 4.7 km/h 4.8 km/h 56% 0.0 mm 659 W/m2
12:12 25 °C 15.9 °C 1022.4 hPa Calm   4.8 km/h 57% 0.0 mm 666 W/m2
12:17 25.2 °C 16.1 °C 1022.4 hPa SSW 1.4 km/h 3.2 km/h 57% 0.0 mm 673 W/m2
12:22 25.4 °C 16 °C 1022.4 hPa SE 1.4 km/h 4.8 km/h 56% 0.0 mm 680 W/m2
12:28 25.6 °C 15.9 °C 1022.0 hPa NNW 1.4 km/h 3.2 km/h 55% 0.0 mm 687 W/m2
12:33 25.8 °C 16.1 °C 1022.0 hPa NE 1.4 km/h 4.8 km/h 55% 0.0 mm 693 W/m2
12:38 26 °C 16.5 °C 1022.0 hPa ESE 6.4 km/h 6.4 km/h 56% 0.0 mm 696 W/m2
12:43 26.1 °C 16.4 °C 1022.0 hPa NE 1.4 km/h 3.2 km/h 55% 0.0 mm 703 W/m2
12:48 26.3 °C 15.7 °C 1022.0 hPa NNE 4.7 km/h 8 km/h 52% 0.0 mm 705 W/m2
12:53 26.3 °C 15.7 °C 1022.0 hPa WSW 3.2 km/h 3.2 km/h 52% 0.0 mm 691 W/m2
12:58 26.3 °C 15.4 °C 1022.0 hPa NNW 1.4 km/h 8 km/h 51% 0.0 mm 682 W/m2
13:03 26.4 °C 15.8 °C 1021.7 hPa SSW 1.4 km/h 4.8 km/h 52% 0.0 mm 700 W/m2
13:08 26.4 °C 15.4 °C 1021.7 hPa ENE 3.2 km/h 8 km/h 51% 0.0 mm 719 W/m2
13:13 26.5 °C 15.5 °C 1021.7 hPa NNW 4.7 km/h 4.8 km/h 51% 0.0 mm 721 W/m2
13:18 26.7 °C 16 °C 1021.7 hPa Calm   1.6 km/h 52% 0.0 mm 724 W/m2
13:23 26.9 °C 15.6 °C 1021.7 hPa East 4.7 km/h 9.7 km/h 50% 0.0 mm 729 W/m2
13:28 27.2 °C 15.2 °C 1021.7 hPa NE 1.4 km/h 4.8 km/h 48% 0.0 mm 717 W/m2
13:33 27.3 °C 15 °C 1021.7 hPa ENE 3.2 km/h 9.7 km/h 47% 0.0 mm 722 W/m2
13:38 27.3 °C 14 °C 1021.7 hPa Calm   4.8 km/h 44% 0.0 mm 724 W/m2
13:43 27.3 °C 13.6 °C 1021.7 hPa NNW 1.4 km/h 4.8 km/h 43% 0.0 mm 721 W/m2
13:48 27.4 °C 14.4 °C 1021.7 hPa ESE 4.7 km/h 9.7 km/h 45% 0.0 mm 733 W/m2
13:53 27.3 °C 15 °C 1021.7 hPa ESE 1.4 km/h 1.6 km/h 47% 0.0 mm 731 W/m2
13:58 27.3 °C 15 °C 1021.7 hPa East 3.2 km/h 6.4 km/h 47% 0.0 mm 726 W/m2
14:03 27.4 °C 14.1 °C 1021.7 hPa East 4.7 km/h 6.4 km/h 44% 0.0 mm 733 W/m2
14:08 27.4 °C 14.8 °C 1021.7 hPa Calm   3.2 km/h 46% 0.0 mm 722 W/m2
14:13 27.6 °C 14.9 °C 1021.3 hPa NNW 3.2 km/h 4.8 km/h 46% 0.0 mm 728 W/m2
14:18 27.7 °C 15 °C 1021.3 hPa ENE 3.2 km/h 6.4 km/h 46% 0.0 mm 673 W/m2
14:23 27.7 °C 14.3 °C 1021.7 hPa NE 4.7 km/h 9.7 km/h 44% 0.0 mm 652 W/m2
14:28 27.7 °C 15.4 °C 1021.7 hPa ESE 1.4 km/h 4.8 km/h 47% 0.0 mm 661 W/m2
14:33 27.7 °C 15.4 °C 1021.7 hPa ENE 3.2 km/h 9.7 km/h 47% 0.0 mm 664 W/m2
14:38 27.6 °C 15.6 °C 1021.7 hPa SE 1.4 km/h 3.2 km/h 48% 0.0 mm 666 W/m2
14:43 27.8 °C 15.1 °C 1021.7 hPa NE 3.2 km/h 6.4 km/h 46% 0.0 mm 650 W/m2
14:48 27.6 °C 14.9 °C 1021.7 hPa NE 9.7 km/h 11.3 km/h 46% 0.0 mm 127 W/m2
14:53 27.3 °C 14.7 °C 1021.7 hPa NE 1.4 km/h 6.4 km/h 46% 0.0 mm 733 W/m2
14:58 27.3 °C 14.7 °C 1021.7 hPa SSE 1.4 km/h 6.4 km/h 46% 0.0 mm 132 W/m2
15:03 27.2 °C 14.6 °C 1021.3 hPa North 1.4 km/h 1.6 km/h 46% 0.0 mm 125 W/m2
15:08 26.8 °C 15.5 °C 1021.3 hPa West 1.4 km/h 6.4 km/h 50% 0.0 mm 204 W/m2
15:13 26.7 °C 15.7 °C 1021.3 hPa WSW 1.4 km/h 3.2 km/h 51% 0.0 mm 580 W/m2
15:18 26.9 °C 14.3 °C 1021.3 hPa ESE 1.4 km/h 3.2 km/h 46% 0.0 mm 561 W/m2
15:23 27.2 °C 14.6 °C 1021.3 hPa Calm   4.8 km/h 46% 0.0 mm 594 W/m2
15:28 27.3 °C 14.7 °C 1021.3 hPa ENE 4.7 km/h 4.8 km/h 46% 0.0 mm 661 W/m2
15:33 27.4 °C 14.8 °C 1021.3 hPa ENE 1.4 km/h 3.2 km/h 46% 0.0 mm 705 W/m2
15:38 27.7 °C 14.3 °C 1021.3 hPa NNW 1.4 km/h 4.8 km/h 44% 0.0 mm 705 W/m2
15:43 27.9 °C 14.5 °C 1021.3 hPa Calm   3.2 km/h 44% 0.0 mm 642 W/m2
15:48 28.3 °C 14.5 °C 1021.3 hPa East 3.2 km/h 3.2 km/h 43% 0.0 mm 584 W/m2
15:53 28.4 °C 14.2 °C 1021.3 hPa ENE 6.4 km/h 11.3 km/h 42% 0.0 mm 279 W/m2
15:58 28.1 °C 13.6 °C 1021.3 hPa SE 4.7 km/h 4.8 km/h 41% 0.0 mm 185 W/m2
16:03 27.8 °C 13.7 °C 1021.3 hPa NNW 1.4 km/h 3.2 km/h 42% 0.0 mm 158 W/m2
16:08 27.6 °C 13.9 °C 1021.3 hPa Calm   1.6 km/h 43% 0.0 mm 158 W/m2
16:13 27.4 °C 13.4 °C 1021.3 hPa NE 4.7 km/h 6.4 km/h 42% 0.0 mm 469 W/m2
16:18 27.4 °C 13.7 °C 1021.3 hPa NNE 3.2 km/h 3.2 km/h 43% 0.0 mm 452 W/m2
16:23 27.5 °C 13.8 °C 1021.3 hPa ENE 1.4 km/h 6.4 km/h 43% 0.0 mm 387 W/m2
16:28 27.6 °C 14.2 °C 1021.3 hPa Calm     44% 0.0 mm 446 W/m2
16:33 27.7 °C 15 °C 1021.0 hPa WNW 3.2 km/h 8 km/h 46% 0.0 mm 471 W/m2
16:38 27.7 °C 14.3 °C 1021.0 hPa West 3.2 km/h 4.8 km/h 44% 0.0 mm 415 W/m2
16:43 27.7 °C 14.3 °C 1021.0 hPa NNW 4.7 km/h 11.3 km/h 44% 0.0 mm 396 W/m2
16:48 27.8 °C 13.7 °C 1021.0 hPa NNW 1.4 km/h 8 km/h 42% 0.0 mm 396 W/m2
16:53 27.8 °C 13.3 °C 1021.0 hPa NE 1.4 km/h 4.8 km/h 41% 0.0 mm 258 W/m2
16:58 27.8 °C 14.1 °C 1021.0 hPa NNW 1.4 km/h 8 km/h 43% 0.0 mm 248 W/m2
17:03 27.7 °C 13.6 °C 1021.0 hPa East 3.2 km/h 6.4 km/h 42% 0.0 mm 336 W/m2
17:08 27.7 °C 14 °C 1021.0 hPa NW 1.4 km/h 4.8 km/h 43% 0.0 mm 346 W/m2
17:13 27.7 °C 13.6 °C 1021.0 hPa NE 1.4 km/h 6.4 km/h 42% 0.0 mm 292 W/m2
17:18 27.6 °C 14.9 °C 1021.0 hPa West 4.7 km/h 4.8 km/h 46% 0.0 mm 320 W/m2
17:23 27.5 °C 14.2 °C 1021.0 hPa WNW 4.7 km/h 4.8 km/h 44% 0.0 mm 306 W/m2
17:28 27.4 °C 14.4 °C 1021.0 hPa NW 1.4 km/h 4.8 km/h 45% 0.0 mm 294 W/m2
17:33 27.4 °C 14.1 °C 1021.0 hPa ENE 4.7 km/h 8 km/h 44% 0.0 mm 297 W/m2
17:38 27.4 °C 13.7 °C 1021.0 hPa Calm   6.4 km/h 43% 0.0 mm 302 W/m2
17:43 27.4 °C 15.4 °C 1020.7 hPa NNW 1.4 km/h 8 km/h 48% 0.0 mm 246 W/m2
17:48 27.3 °C 14 °C 1021.0 hPa Calm   1.6 km/h 44% 0.0 mm 285 W/m2
17:53 27.3 °C 14 °C 1021.0 hPa ENE 3.2 km/h 3.2 km/h 44% 0.0 mm 272 W/m2
17:58 27.3 °C 13.6 °C 1021.0 hPa ENE 6.4 km/h 8 km/h 43% 0.0 mm 257 W/m2
18:04 27.3 °C 14.3 °C 1021.0 hPa SE 1.4 km/h 3.2 km/h 45% 0.0 mm 190 W/m2
18:09 27.2 °C 14.2 °C 1021.0 hPa Calm   6.4 km/h 45% 0.0 mm 156 W/m2
18:14 26.9 °C 13.6 °C 1021.0 hPa NNE 1.4 km/h 3.2 km/h 44% 0.0 mm 155 W/m2
18:19 26.9 °C 14.3 °C 1021.0 hPa Calm   1.6 km/h 46% 0.0 mm 169 W/m2
18:24 26.8 °C 14.5 °C 1021.0 hPa SE 1.4 km/h 6.4 km/h 47% 0.0 mm 218 W/m2
18:29 26.8 °C 14.5 °C 1021.0 hPa West 1.4 km/h 4.8 km/h 47% 0.0 mm 204 W/m2
18:34 26.8 °C 14.9 °C 1021.0 hPa East 3.2 km/h 6.4 km/h 48% 0.0 mm 190 W/m2
18:39 26.8 °C 14.5 °C 1021.0 hPa East 1.4 km/h 3.2 km/h 47% 0.0 mm 211 W/m2
18:44 26.7 °C 14.5 °C 1021.0 hPa East 4.7 km/h 6.4 km/h 47% 0.0 mm 165 W/m2
18:49 26.6 °C 13.7 °C 1021.0 hPa North 4.7 km/h 6.4 km/h 45% 0.0 mm 158 W/m2
18:54 26.7 °C 14.8 °C 1021.0 hPa Calm   3.2 km/h 48% 0.0 mm 135 W/m2
18:59 26.7 °C 14.8 °C 1021.0 hPa NNE 1.4 km/h 1.6 km/h 48% 0.0 mm 132 W/m2
19:04 26.6 °C 15 °C 1021.0 hPa Calm   3.2 km/h 49% 0.0 mm 105 W/m2
19:09 26.6 °C 15.6 °C 1021.0 hPa SE 3.2 km/h 3.2 km/h 51% 0.0 mm 77 W/m2
19:14 26.2 °C 15 °C 1021.0 hPa Calm   3.2 km/h 50% 0.0 mm 69 W/m2
19:19 25.9 °C 14.7 °C 1021.0 hPa WSW 3.2 km/h 6.4 km/h 50% 0.0 mm 62 W/m2
19:24 25.6 °C 14.4 °C 1021.0 hPa West 3.2 km/h 4.8 km/h 50% 0.0 mm 47 W/m2
19:29 25.4 °C 14.5 °C 1021.0 hPa Calm   6.4 km/h 51% 0.0 mm 39 W/m2
19:34 25.3 °C 14.7 °C 1021.0 hPa Calm   3.2 km/h 52% 0.0 mm 32 W/m2
19:39 25 °C 15 °C 1021.0 hPa WSW 1.4 km/h 1.6 km/h 54% 0.0 mm 25 W/m2
19:44 24.6 °C 15.8 °C 1021.0 hPa WSW 3.2 km/h 3.2 km/h 58% 0.0 mm 18 W/m2
19:49 24.2 °C 15.7 °C 1021.0 hPa Calm   1.6 km/h 59% 0.0 mm 12 W/m2
19:54 23.8 °C 15.6 °C 1021.0 hPa Calm   3.2 km/h 60% 0.0 mm 9 W/m2
19:59 23.3 °C 15.6 °C 1021.0 hPa WSW 1.4 km/h 1.6 km/h 62% 0.0 mm 5 W/m2
20:04 23 °C 15.6 °C 1021.0 hPa WSW 1.4 km/h 1.6 km/h 63% 0.0 mm 0 W/m2
20:09 22.7 °C 15.5 °C 1021.0 hPa WSW 3.2 km/h 3.2 km/h 64% 0.0 mm 0 W/m2
20:14 22.4 °C 15.3 °C 1021.3 hPa Calm   1.6 km/h 64% 0.0 mm 0 W/m2
20:19 22.1 °C 15.2 °C 1021.3 hPa WSW 1.4 km/h 3.2 km/h 65% 0.0 mm 0 W/m2
20:24 21.8 °C 15.2 °C 1021.3 hPa WSW 1.4 km/h 3.2 km/h 66% 0.0 mm 0 W/m2
20:29 21.6 °C 14.7 °C 1021.3 hPa SSW 4.7 km/h 6.4 km/h 65% 0.0 mm 0 W/m2
20:34 21.6 °C 15 °C 1021.3 hPa Calm   4.8 km/h 66% 0.0 mm 0 W/m2
20:39 21.5 °C 14.9 °C 1021.3 hPa SSW 1.4 km/h 3.2 km/h 66% 0.0 mm 0 W/m2
20:44 21.4 °C 15 °C 1021.3 hPa SSW 1.4 km/h 1.6 km/h 67% 0.0 mm 0 W/m2
20:49 21.3 °C 14.9 °C 1021.3 hPa WSW 3.2 km/h 4.8 km/h 67% 0.0 mm 0 W/m2
20:54 21.2 °C 14.8 °C 1021.3 hPa WSW 1.4 km/h 3.2 km/h 67% 0.0 mm 0 W/m2
20:59 21.1 °C 15 °C 1021.3 hPa Calm   4.8 km/h 68% 0.0 mm 0 W/m2
21:04 20.9 °C 14.5 °C 1021.7 hPa Calm     67% 0.0 mm 0 W/m2
21:09 20.8 °C 14.7 °C 1021.7 hPa Calm     68% 0.0 mm 0 W/m2
21:14 20.6 °C 14.5 °C 1021.7 hPa Calm     68% 0.0 mm 0 W/m2
21:19 20.4 °C 14.5 °C 1021.7 hPa Calm     69% 0.0 mm 0 W/m2
21:24 20.3 °C 14.6 °C 1021.7 hPa Calm     70% 0.0 mm 0 W/m2
21:29 20.3 °C 14.6 °C 1021.7 hPa Calm     70% 0.0 mm 0 W/m2
21:34 20.1 °C 14.5 °C 1021.7 hPa Calm     70% 0.0 mm 0 W/m2
21:39 19.9 °C 14.5 °C 1021.7 hPa Calm     71% 0.0 mm 0 W/m2
21:44 19.8 °C 14.6 °C 1021.7 hPa Calm     72% 0.0 mm 0 W/m2
21:49 19.7 °C 14.5 °C 1021.7 hPa Calm     72% 0.0 mm 0 W/m2
21:54 19.5 °C 14.5 °C 1021.7 hPa Calm     73% 0.0 mm 0 W/m2
21:59 19.3 °C 14.5 °C 1021.7 hPa Calm     74% 0.0 mm 0 W/m2
22:04 19.2 °C 14.5 °C 1021.7 hPa Calm     74% 0.0 mm 0 W/m2
22:09 19.1 °C 14.6 °C 1021.7 hPa Calm     75% 0.0 mm 0 W/m2
22:14 18.9 °C 14.4 °C 1022.0 hPa Calm     75% 0.0 mm 0 W/m2
22:19 18.9 °C 14.6 °C 1022.0 hPa Calm     76% 0.0 mm 0 W/m2
22:24 18.7 °C 14.6 °C 1022.0 hPa Calm     77% 0.0 mm 0 W/m2
22:29 18.6 °C 14.7 °C 1022.0 hPa Calm     78% 0.0 mm 0 W/m2
22:34 18.4 °C 14.5 °C 1022.0 hPa Calm     78% 0.0 mm 0 W/m2
22:39 18.4 °C 14.7 °C 1022.0 hPa Calm     79% 0.0 mm 0 W/m2
22:44 18.3 °C 14.6 °C 1022.0 hPa Calm     79% 0.0 mm 0 W/m2
22:49 18.2 °C 14.7 °C 1022.0 hPa Calm     80% 0.0 mm 0 W/m2
22:54 18.1 °C 14.6 °C 1022.0 hPa Calm     80% 0.0 mm 0 W/m2
22:59 18 °C 14.5 °C 1022.0 hPa Calm     80% 0.0 mm 0 W/m2
23:04 17.9 °C 14.6 °C 1022.0 hPa Calm     81% 0.0 mm 0 W/m2
23:09 17.8 °C 14.5 °C 1022.0 hPa Calm     81% 0.0 mm 0 W/m2
23:14 17.7 °C 14.4 °C 1022.0 hPa Calm     81% 0.0 mm 0 W/m2
23:19 17.7 °C 14.6 °C 1022.0 hPa Calm     82% 0.0 mm 0 W/m2
23:24 17.6 °C 14.5 °C 1022.0 hPa Calm     82% 0.0 mm 0 W/m2
23:29 17.6 °C 14.5 °C 1022.0 hPa NNW 1.4 km/h 3.2 km/h 82% 0.0 mm 0 W/m2
23:34 17.6 °C 14.5 °C 1022.0 hPa Calm   1.6 km/h 82% 0.0 mm 0 W/m2
23:39 17.5 °C 14.4 °C 1022.0 hPa SW 1.4 km/h 1.6 km/h 82% 0.0 mm 0 W/m2
23:44 17.6 °C 14.5 °C 1022.0 hPa Calm     82% 0.0 mm 0 W/m2
23:49 17.7 °C 14.4 °C 1022.4 hPa Calm   1.6 km/h 81% 0.0 mm 0 W/m2
23:54 17.9 °C 14.4 °C 1022.4 hPa Calm   1.6 km/h 80% 0.0 mm 0 W/m2
23:59 18.1 °C 14.6 °C 1022.4 hPa SSW 3.2 km/h 3.2 km/h 80% 0.0 mm 0 W/m2
Juneau County Weather
Compliments of Weather Underground - 4 mb